Time;durP1;ratioP1;P1;durP2;ratioP2;P2;SDS_P1;SDS_P2;PMS_P1;PMS_P2;Temp;Humidity;BMP_temperature;BMP_pressure;BME280_temperature;BME280_humidity;BME280_pressure;Samples;Min_cycle;Max_cycle;Signal;HPM_P1;HPM_P2
2022/03/14 00:00:56;;;;;;;9.50;6.63;;;9.00;99.90;;;;;;502417;236;27533;-72
2022/03/14 00:02:56;;;;;;;9.07;6.33;;;9.00;99.90;;;;;;502286;236;27727;-71
2022/03/14 00:04:57;;;;;;;9.83;6.63;;;9.00;99.90;;;;;;502420;236;27830;-72
2022/03/14 00:06:59;;;;;;;7.37;6.03;;;9.00;99.90;;;;;;502382;236;27967;-72
2022/03/14 00:09:06;;;;;;;8.23;6.43;;;9.00;99.90;;;;;;502434;236;28069;-72
2022/03/14 00:11:01;;;;;;;8.13;6.33;;;9.00;99.90;;;;;;502284;236;27909;-72
2022/03/14 00:13:03;;;;;;;7.97;6.10;;;9.00;99.90;;;;;;502327;236;27852;-71
2022/03/14 00:15:08;;;;;;;8.20;6.20;;;9.00;99.90;;;;;;502334;236;28201;-71
2022/03/14 00:17:11;;;;;;;8.23;6.50;;;9.00;99.90;;;;;;502350;236;28047;-72
2022/03/14 00:19:07;;;;;;;8.67;6.40;;;8.90;99.90;;;;;;500231;234;27497;-71
2022/03/14 00:21:07;;;;;;;8.30;6.00;;;8.90;99.90;;;;;;493935;237;28210;-72
2022/03/14 00:23:09;;;;;;;7.03;6.00;;;8.80;99.90;;;;;;493428;241;28121;-72
2022/03/14 00:25:10;;;;;;;6.63;5.20;;;8.80;99.90;;;;;;493515;241;28082;-72
2022/03/14 00:27:11;;;;;;;5.13;4.50;;;8.70;99.90;;;;;;493496;241;27699;-72
2022/03/14 00:29:12;;;;;;;4.80;4.30;;;8.60;99.90;;;;;;493433;241;28035;-72
2022/03/14 00:31:14;;;;;;;5.10;4.57;;;8.50;99.90;;;;;;493397;241;28002;-71
2022/03/14 00:33:16;;;;;;;4.60;4.10;;;;;;;;;;493339;241;28001;-72
2022/03/14 00:35:18;;;;;;;4.40;4.00;;;;;;;;;;493435;241;27333;-72
2022/03/14 00:37:19;;;;;;;3.90;3.43;;;8.40;99.90;;;;;;493548;241;27187;-72
2022/03/14 00:39:20;;;;;;;3.80;3.50;;;8.30;99.90;;;;;;493548;241;28228;-72
2022/03/14 00:41:21;;;;;;;2.93;2.73;;;8.20;99.90;;;;;;493514;241;27564;-72
2022/03/14 00:43:23;;;;;;;3.23;2.93;;;8.20;99.90;;;;;;493421;241;27655;-71
2022/03/14 00:45:25;;;;;;;3.00;2.70;;;8.10;99.90;;;;;;493318;241;28089;-72
2022/03/14 00:47:26;;;;;;;2.90;2.60;;;8.20;99.90;;;;;;493480;241;28050;-71
2022/03/14 00:49:27;;;;;;;2.70;2.50;;;8.10;99.90;;;;;;493366;240;28323;-72
2022/03/14 00:51:28;;;;;;;2.27;2.17;;;8.00;99.90;;;;;;494951;236;28132;-71
2022/03/14 00:53:29;;;;;;;2.37;2.20;;;8.00;99.90;;;;;;508667;233;27882;-72
2022/03/14 00:55:30;;;;;;;2.23;2.03;;;8.00;99.90;;;;;;510084;232;29601;-72
2022/03/14 00:57:31;;;;;;;2.37;2.17;;;7.90;99.90;;;;;;510265;232;28466;-71
2022/03/14 00:59:34;;;;;;;1.97;1.87;;;7.90;99.90;;;;;;510265;232;28060;-72
2022/03/14 01:01:34;;;;;;;2.33;2.13;;;7.90;99.90;;;;;;510140;232;28566;-71
2022/03/14 01:03:35;;;;;;;2.43;2.23;;;7.90;99.90;;;;;;510234;232;28049;-71
2022/03/14 01:05:36;;;;;;;2.37;2.20;;;7.80;99.90;;;;;;510183;232;28195;-71
2022/03/14 01:07:38;;;;;;;2.60;2.40;;;7.80;99.90;;;;;;505832;233;27578;-72
2022/03/14 01:09:39;;;;;;;1.93;1.83;;;7.80;99.90;;;;;;491421;241;28018;-71
2022/03/14 01:11:40;;;;;;;2.37;2.20;;;7.90;99.90;;;;;;491351;241;27854;-71
2022/03/14 01:13:44;;;;;;;2.23;2.13;;;7.90;99.90;;;;;;491377;241;27734;-71
2022/03/14 01:15:43;;;;;;;1.80;1.70;;;7.80;99.90;;;;;;491164;241;27780;-71
2022/03/14 01:17:44;;;;;;;2.23;2.13;;;7.80;99.90;;;;;;491423;241;28012;-71
2022/03/14 01:19:46;;;;;;;1.83;1.73;;;7.80;99.90;;;;;;491272;241;27933;-72
2022/03/14 01:21:46;;;;;;;1.97;1.87;;;7.80;99.90;;;;;;491308;241;27830;-71
2022/03/14 01:23:48;;;;;;;1.90;1.80;;;7.80;99.90;;;;;;491356;241;27859;-71
2022/03/14 01:25:51;;;;;;;1.87;1.77;;;7.70;99.90;;;;;;491363;241;27759;-71
2022/03/14 01:27:50;;;;;;;2.20;2.00;;;7.70;99.90;;;;;;491329;241;27843;-71
2022/03/14 01:29:51;;;;;;;1.90;1.80;;;7.70;99.90;;;;;;494350;233;27762;-71
2022/03/14 01:31:54;;;;;;;1.80;1.70;;;7.60;99.90;;;;;;493423;241;28124;-71
2022/03/14 01:33:54;;;;;;;1.77;1.67;;;7.60;99.90;;;;;;493358;240;27721;-71
2022/03/14 01:35:55;;;;;;;1.87;1.77;;;7.60;99.90;;;;;;496536;237;29367;-71
2022/03/14 01:37:57;;;;;;;1.93;1.83;;;7.50;99.90;;;;;;502408;237;28368;-71
2022/03/14 01:39:58;;;;;;;1.90;1.77;;;7.50;99.90;;;;;;502425;237;28587;-71
2022/03/14 01:41:59;;;;;;;2.13;1.70;;;7.50;99.90;;;;;;502369;237;27875;-71
2022/03/14 01:44:00;;;;;;;1.90;1.80;;;7.50;99.90;;;;;;502413;236;28426;-71
2022/03/14 01:46:01;;;;;;;1.80;1.70;;;7.50;99.90;;;;;;502391;237;28449;-71
2022/03/14 01:48:05;;;;;;;1.70;1.60;;;7.50;99.90;;;;;;502308;237;28081;-71
2022/03/14 01:50:05;;;;;;;1.60;1.50;;;7.50;99.90;;;;;;502428;236;27941;-71
2022/03/14 01:52:07;;;;;;;1.80;1.70;;;7.50;99.90;;;;;;502325;236;27967;-71
2022/03/14 01:54:07;;;;;;;1.70;1.60;;;7.50;99.90;;;;;;502356;237;28057;-71
2022/03/14 01:56:12;;;;;;;1.67;1.53;;;7.50;99.90;;;;;;502417;237;28009;-71
2022/03/14 01:58:09;;;;;;;1.50;1.40;;;7.50;99.90;;;;;;502379;236;28001;-71
2022/03/14 02:00:10;;;;;;;1.60;1.50;;;7.50;99.90;;;;;;502410;237;28075;-71
2022/03/14 02:02:11;;;;;;;1.97;1.77;;;7.50;99.90;;;;;;502342;237;28022;-71
2022/03/14 02:04:14;;;;;;;1.60;1.50;;;7.50;99.90;;;;;;502406;237;27859;-71
2022/03/14 02:06:14;;;;;;;1.77;1.67;;;7.50;99.90;;;;;;502357;237;27827;-71
2022/03/14 02:08:15;;;;;;;1.53;1.43;;;7.50;99.90;;;;;;502342;236;27878;-72
2022/03/14 02:10:16;;;;;;;1.40;1.40;;;7.40;99.90;;;;;;502389;237;28033;-71
2022/03/14 02:12:18;;;;;;;1.50;1.50;;;7.40;99.90;;;;;;502295;236;27517;-71
2022/03/14 02:14:19;;;;;;;1.57;1.47;;;7.50;99.90;;;;;;502201;237;28523;-71
2022/03/14 02:16:20;;;;;;;1.50;1.47;;;7.40;99.90;;;;;;502170;237;29048;-71
2022/03/14 02:18:21;;;;;;;1.70;1.60;;;7.40;99.90;;;;;;502187;237;28403;-71
2022/03/14 02:20:23;;;;;;;1.93;1.83;;;7.40;99.90;;;;;;502404;237;28468;-71
2022/03/14 02:22:24;;;;;;;1.40;1.40;;;7.40;99.90;;;;;;502394;237;28176;-71
2022/03/14 02:24:25;;;;;;;2.00;1.90;;;7.40;99.90;;;;;;500205;237;27973;-71
2022/03/14 02:26:26;;;;;;;1.70;1.60;;;7.50;99.90;;;;;;493520;241;27606;-72
2022/03/14 02:28:28;;;;;;;1.87;1.77;;;7.40;99.90;;;;;;493474;241;27966;-71
2022/03/14 02:30:29;;;;;;;1.70;1.60;;;7.40;99.90;;;;;;493544;241;27926;-71
2022/03/14 02:32:30;;;;;;;1.60;1.50;;;7.40;99.90;;;;;;493526;241;27953;-71
2022/03/14 02:34:32;;;;;;;1.53;1.50;;;7.40;99.90;;;;;;493465;241;28038;-71
2022/03/14 02:36:33;;;;;;;1.93;1.83;;;7.40;99.90;;;;;;493539;241;28019;-71
2022/03/14 02:38:34;;;;;;;1.70;1.60;;;7.40;99.90;;;;;;493504;241;28453;-71
2022/03/14 02:40:36;;;;;;;1.80;1.70;;;7.40;99.90;;;;;;493552;241;28352;-71
2022/03/14 02:42:37;;;;;;;1.70;1.60;;;7.40;99.90;;;;;;493528;241;28376;-72
2022/03/14 02:44:41;;;;;;;1.80;1.70;;;7.40;99.90;;;;;;493443;241;28426;-71
2022/03/14 02:46:39;;;;;;;1.80;1.70;;;7.40;99.90;;;;;;493463;240;28471;-71
2022/03/14 02:48:40;;;;;;;1.90;1.80;;;7.40;99.90;;;;;;493498;241;28419;-71
2022/03/14 02:50:42;;;;;;;1.97;1.87;;;7.30;99.90;;;;;;493574;241;27974;-71
2022/03/14 02:52:43;;;;;;;2.33;2.13;;;7.40;99.90;;;;;;493347;241;28035;-71
2022/03/14 02:54:44;;;;;;;2.10;1.93;;;7.40;99.90;;;;;;493494;241;27761;-71
2022/03/14 02:56:45;;;;;;;1.80;1.70;;;7.30;99.90;;;;;;493543;241;27908;-71
2022/03/14 02:58:51;;;;;;;1.73;1.60;;;7.30;99.90;;;;;;493505;241;27911;-71
2022/03/14 03:00:51;;;;;;;1.90;1.80;;;7.30;99.90;;;;;;493503;240;27969;-71
2022/03/14 03:02:49;;;;;;;1.77;1.67;;;7.30;99.90;;;;;;493490;240;28016;-71
2022/03/14 03:04:50;;;;;;;1.70;1.60;;;7.30;99.90;;;;;;493514;241;28118;-71
2022/03/14 03:06:54;;;;;;;1.60;1.50;;;7.30;99.90;;;;;;493583;241;27775;-71
2022/03/14 03:08:53;;;;;;;1.60;1.50;;;7.40;99.90;;;;;;493513;240;28065;-71
2022/03/14 03:10:59;;;;;;;1.60;1.50;;;7.30;99.90;;;;;;493540;241;27974;-71
2022/03/14 03:12:55;;;;;;;1.90;1.80;;;7.30;99.90;;;;;;493532;240;27934;-71
2022/03/14 03:14:58;;;;;;;1.83;1.73;;;7.30;99.90;;;;;;493512;241;27919;-71
2022/03/14 03:16:58;;;;;;;1.63;1.50;;;7.30;99.90;;;;;;493534;240;27752;-71
2022/03/14 03:18:59;;;;;;;1.83;1.73;;;7.30;99.90;;;;;;493470;241;28004;-71
2022/03/14 03:21:00;;;;;;;1.80;1.70;;;7.20;99.90;;;;;;493543;241;27915;-71
2022/03/14 03:23:02;;;;;;;1.80;1.60;;;7.30;99.90;;;;;;493495;241;27759;-71
2022/03/14 03:25:03;;;;;;;2.00;1.90;;;7.30;99.90;;;;;;496991;235;27783;-71
2022/03/14 03:27:04;;;;;;;1.80;1.70;;;7.30;99.90;;;;;;500097;237;28042;-71
2022/03/14 03:29:05;;;;;;;1.80;1.70;;;7.20;99.90;;;;;;500020;237;27906;-71
2022/03/14 03:31:07;;;;;;;1.90;1.80;;;7.20;99.90;;;;;;500058;237;28038;-71
2022/03/14 03:33:08;;;;;;;2.40;2.20;;;7.20;99.90;;;;;;500100;237;28067;-72
2022/03/14 03:35:09;;;;;;;2.43;2.33;;;7.10;99.90;;;;;;499974;237;27939;-71
2022/03/14 03:37:11;;;;;;;2.30;2.20;;;7.20;99.90;;;;;;500064;237;27812;-71
2022/03/14 03:39:12;;;;;;;1.97;1.87;;;7.10;99.90;;;;;;500073;237;27568;-71
2022/03/14 03:41:13;;;;;;;2.40;2.20;;;7.10;99.90;;;;;;500049;237;27499;-71
2022/03/14 03:43:14;;;;;;;2.00;1.90;;;7.10;99.90;;;;;;500102;237;28002;-72
2022/03/14 03:45:17;;;;;;;2.20;2.10;;;7.10;99.90;;;;;;500003;237;27921;-72
2022/03/14 03:47:17;;;;;;;2.93;2.40;;;7.10;99.90;;;;;;500085;237;27829;-71
2022/03/14 03:49:18;;;;;;;2.10;2.00;;;7.10;99.90;;;;;;500090;237;27924;-71
2022/03/14 03:51:19;;;;;;;2.97;2.77;;;7.10;99.90;;;;;;500033;237;28255;-71
2022/03/14 03:53:21;;;;;;;3.00;2.70;;;7.00;99.90;;;;;;500100;237;28512;-71
2022/03/14 03:55:22;;;;;;;2.67;2.47;;;7.10;99.90;;;;;;500052;238;28003;-71
2022/03/14 03:57:23;;;;;;;4.33;3.23;;;7.10;99.90;;;;;;500082;237;28557;-71
2022/03/14 03:59:24;;;;;;;2.90;2.70;;;7.00;99.90;;;;;;500089;237;28575;-71
2022/03/14 04:01:26;;;;;;;3.50;3.20;;;7.00;99.90;;;;;;500060;237;27831;-71
2022/03/14 04:03:27;;;;;;;3.60;3.30;;;7.00;99.90;;;;;;500281;237;27533;-71
2022/03/14 04:05:29;;;;;;;2.80;2.60;;;6.90;99.90;;;;;;500093;234;28127;-71
2022/03/14 04:07:33;;;;;;;3.20;2.90;;;6.90;99.90;;;;;;500294;237;28143;-71
2022/03/14 04:09:31;;;;;;;3.30;3.10;;;7.00;99.90;;;;;;500079;237;27660;-71
2022/03/14 04:11:32;;;;;;;4.30;3.27;;;6.90;99.90;;;;;;500007;237;28063;-70
2022/03/14 04:13:33;;;;;;;4.00;3.63;;;6.90;99.90;;;;;;500093;237;28059;-72
2022/03/14 04:15:50;;;;;;;4.37;3.40;;;6.90;99.90;;;;;;500063;237;27957;-72
2022/03/14 04:17:45;;;;;;;3.77;3.40;;;6.90;99.90;;;;;;500103;237;28600;-72
2022/03/14 04:19:48;;;;;;;5.70;3.90;;;6.90;99.90;;;;;;500088;237;28504;-72
2022/03/14 04:21:52;;;;;;;4.20;3.80;;;6.80;99.90;;;;;;500046;237;28515;-71
2022/03/14 04:23:51;;;;;;;6.83;4.30;;;6.80;99.90;;;;;;500111;237;27689;-72
2022/03/14 04:25:52;;;;;;;4.03;3.63;;;6.80;99.90;;;;;;493712;237;28689;-72
2022/03/14 04:27:54;;;;;;;4.83;3.83;;;6.80;99.90;;;;;;493586;241;28849;-72
2022/03/14 04:29:55;;;;;;;4.30;3.87;;;6.80;99.90;;;;;;493693;241;28481;-72
2022/03/14 04:31:56;;;;;;;5.50;3.53;;;6.80;99.90;;;;;;493493;241;28495;-72
2022/03/14 04:33:57;;;;;;;3.80;3.50;;;6.80;99.90;;;;;;493520;241;28443;-72
2022/03/14 04:35:59;;;;;;;4.97;3.47;;;6.70;99.90;;;;;;493497;241;27972;-72
2022/03/14 04:38:00;;;;;;;3.80;3.50;;;6.70;99.90;;;;;;493550;241;28179;-72
2022/03/14 04:40:01;;;;;;;4.57;3.93;;;6.60;99.90;;;;;;493611;241;27913;-72
2022/03/14 04:42:02;;;;;;;5.93;3.80;;;6.60;99.90;;;;;;493488;241;27970;-71
2022/03/14 04:44:04;;;;;;;4.80;3.67;;;6.60;99.90;;;;;;493541;241;28158;-72
2022/03/14 04:46:05;;;;;;;3.80;3.40;;;6.60;99.90;;;;;;493479;241;28033;-72
2022/03/14 04:48:07;;;;;;;4.43;3.40;;;6.60;99.90;;;;;;493609;241;27989;-72
2022/03/14 04:50:08;;;;;;;3.93;3.20;;;6.60;99.90;;;;;;493386;241;28128;-72
2022/03/14 04:52:09;;;;;;;4.30;3.20;;;6.60;99.90;;;;;;493436;241;28956;-72
2022/03/14 04:54:10;;;;;;;5.77;3.10;;;6.60;99.90;;;;;;493519;241;27952;-72
2022/03/14 04:56:12;;;;;;;3.70;3.10;;;6.60;99.90;;;;;;493431;241;28795;-72
2022/03/14 04:58:14;;;;;;;5.10;3.37;;;6.50;99.90;;;;;;493455;241;28829;-72
2022/03/14 05:00:14;;;;;;;5.00;3.33;;;6.50;99.90;;;;;;493443;241;28025;-72
2022/03/14 05:02:15;;;;;;;4.03;3.00;;;6.60;99.90;;;;;;493472;241;28012;-69
2022/03/14 05:04:18;;;;;;;4.67;3.23;;;6.60;99.90;;;;;;493440;240;28442;-72
2022/03/14 05:06:19;;;;;;;3.20;2.90;;;;;;;;;;493368;241;28657;-72
2022/03/14 05:08:21;;;;;;;3.40;2.73;;;;;;;;;;493514;241;26686;-72
2022/03/14 05:10:23;;;;;;;4.13;2.93;;;;;;;;;;493490;241;27235;-71
2022/03/14 05:12:25;;;;;;;2.80;2.50;;;;;;;;;;493451;241;27764;-72
2022/03/14 05:14:27;;;;;;;3.47;3.00;;;;;;;;;;493512;241;27656;-72
2022/03/14 05:16:30;;;;;;;3.17;2.87;;;;;;;;;;493452;241;27086;-72
2022/03/14 05:18:32;;;;;;;4.00;2.50;;;;;;;;;;493537;241;26463;-72
2022/03/14 05:20:36;;;;;;;4.70;2.50;;;;;;;;;;493509;241;28157;-72
2022/03/14 05:22:36;;;;;;;3.73;2.40;;;;;;;;;;493350;240;27744;-71
2022/03/14 05:24:38;;;;;;;4.63;2.20;;;;;;;;;;490372;239;27525;-72
2022/03/14 05:26:40;;;;;;;4.57;2.27;;;;;;;;;;487836;242;26866;-71
2022/03/14 05:28:42;;;;;;;5.70;2.20;;;;;;;;;;490300;242;26870;-71
2022/03/14 05:30:44;;;;;;;3.83;2.40;;;;;;;;;;490333;242;26464;-71
2022/03/14 05:32:47;;;;;;;4.72;3.20;;;;;;;;;;490307;242;27315;-70
2022/03/14 05:34:49;;;;;;;3.00;2.30;;;;;;;;;;490350;242;26940;-70
2022/03/14 05:36:51;;;;;;;3.00;2.13;;;;;;;;;;490343;242;27680;-71
2022/03/14 05:38:54;;;;;;;2.65;2.25;;;;;;;;;;490315;242;26696;-71
2022/03/14 05:40:56;;;;;;;3.70;2.10;;;;;;;;;;490391;242;26950;-71
2022/03/14 05:42:58;;;;;;;2.87;2.30;;;;;;;;;;490310;242;27249;-70
2022/03/14 05:45:00;;;;;;;4.10;2.10;;;;;;;;;;490392;242;26463;-71
2022/03/14 05:47:02;;;;;;;5.03;2.60;;;;;;;;;;490359;242;27698;-71
2022/03/14 05:49:05;;;;;;;2.20;2.00;;;;;;;;;;490298;240;27780;-71
2022/03/14 05:51:10;;;;;;;2.40;2.20;;;;;;;;;;490355;242;26858;-71
2022/03/14 05:53:12;;;;;;;2.80;2.20;;;;;;;;;;490317;242;27176;-72
2022/03/14 05:55:14;;;;;;;2.13;1.77;;;;;;;;;;490384;242;26696;-72
2022/03/14 05:57:16;;;;;;;2.10;1.80;;;;;;;;;;491050;240;27473;-71
2022/03/14 05:59:18;;;;;;;3.57;2.10;;;;;;;;;;491301;240;26806;-72
2022/03/14 06:01:22;;;;;;;3.70;2.23;;;;;;;;;;493269;241;27512;-71
2022/03/14 06:03:22;;;;;;;3.93;1.90;;;;;;;;;;488536;243;27835;-71
2022/03/14 06:05:24;;;;;;;4.00;1.93;;;;;;;;;;488604;240;26598;-71
2022/03/14 06:07:27;;;;;;;2.43;1.97;;;;;;;;;;488664;241;28030;-72
2022/03/14 06:09:33;;;;;;;2.95;2.20;;;;;;;;;;489773;241;27708;-73
2022/03/14 06:11:38;;;;;;;3.42;1.80;;;6.60;99.90;;;;;;497259;236;35750;-73
2022/03/14 06:13:36;;;;;;;2.30;2.10;;;6.60;99.90;;;;;;501429;237;27030;-72
2022/03/14 06:15:39;;;;;;;2.43;2.23;;;;;;;;;;501641;237;27794;-73
2022/03/14 06:17:41;;;;;;;2.70;2.10;;;;;;;;;;501634;236;27218;-73
2022/03/14 06:19:44;;;;;;;2.72;2.30;;;;;;;;;;501662;237;26819;-73
2022/03/14 06:21:46;;;;;;;3.80;2.20;;;;;;;;;;501168;237;26317;-76
2022/03/14 06:23:48;;;;;;;4.00;2.37;;;;;;;;;;499311;238;27344;-74
2022/03/14 06:25:51;;;;;;;3.03;2.70;;;;;;;;;;499505;237;26831;-74
2022/03/14 06:27:53;;;;;;;7.50;2.60;;;;;;;;;;499554;238;27085;-72
2022/03/14 06:29:55;;;;;;;5.12;2.50;;;;;;;;;;499617;237;26376;-74
2022/03/14 06:31:58;;;;;;;4.20;3.80;;;;;;;;;;499610;237;26239;-72
2022/03/14 06:33:59;;;;;;;3.13;2.47;;;;;;;;;;499604;238;26875;-72
2022/03/14 06:36:00;;;;;;;2.53;2.10;;;6.80;99.90;;;;;;499604;237;26690;-73
2022/03/14 06:38:04;;;;;;;5.20;2.70;;;6.80;99.90;;;;;;499627;237;28024;-74
2022/03/14 06:40:03;;;;;;;4.90;2.70;;;6.70;99.90;;;;;;499520;238;28799;-74
2022/03/14 06:42:09;;;;;;;3.23;2.43;;;;;;;;;;499632;237;28032;-72
2022/03/14 06:44:06;;;;;;;6.57;2.47;;;6.70;99.90;;;;;;499432;238;27256;-73
2022/03/14 06:46:08;;;;;;;3.40;2.70;;;6.70;99.90;;;;;;499664;237;28486;-73
2022/03/14 06:48:09;;;;;;;4.23;2.60;;;;;;;;;;493073;238;28729;-72
2022/03/14 06:50:13;;;;;;;3.50;2.67;;;;;;;;;;492996;239;26817;-73
2022/03/14 06:52:14;;;;;;;4.67;2.90;;;;;;;;;;493559;241;26833;-74
2022/03/14 06:54:15;;;;;;;5.97;2.87;;;6.90;99.90;;;;;;493641;240;26921;-70
2022/03/14 06:56:16;;;;;;;3.93;3.20;;;6.90;99.90;;;;;;493602;241;28078;-70
2022/03/14 06:58:17;;;;;;;3.20;2.90;;;6.90;99.90;;;;;;493529;241;28254;-71
2022/03/14 07:00:19;;;;;;;3.63;3.07;;;6.90;99.90;;;;;;493661;237;28062;-70
2022/03/14 07:02:20;;;;;;;3.20;2.90;;;7.10;99.90;;;;;;493589;241;28436;-74
2022/03/14 07:04:21;;;;;;;4.83;3.03;;;7.10;99.90;;;;;;493646;241;28247;-74
2022/03/14 07:06:22;;;;;;;5.20;2.93;;;7.20;99.90;;;;;;493703;241;27822;-72
2022/03/14 07:08:24;;;;;;;4.27;3.27;;;7.30;99.90;;;;;;493687;241;27520;-73
2022/03/14 07:10:26;;;;;;;5.73;3.20;;;7.20;99.90;;;;;;493621;241;27604;-73
2022/03/14 07:12:26;;;;;;;7.40;3.50;;;7.20;99.90;;;;;;493570;241;27828;-73
2022/03/14 07:14:27;;;;;;;6.47;3.93;;;7.20;99.90;;;;;;493518;241;27415;-73
2022/03/14 07:16:29;;;;;;;4.13;3.73;;;7.10;99.90;;;;;;493655;241;28030;-73
2022/03/14 07:18:30;;;;;;;3.53;3.00;;;7.10;99.90;;;;;;493665;241;27949;-73
2022/03/14 07:20:31;;;;;;;4.40;3.13;;;7.00;99.90;;;;;;493677;241;27749;-73
2022/03/14 07:22:36;;;;;;;5.73;3.47;;;7.00;99.90;;;;;;493650;241;27944;-73
2022/03/14 07:24:34;;;;;;;5.60;3.40;;;7.00;99.90;;;;;;493394;241;28311;-75
2022/03/14 07:26:35;;;;;;;3.63;3.33;;;7.00;99.90;;;;;;492445;241;28097;-72
2022/03/14 07:28:36;;;;;;;3.43;3.13;;;6.90;99.90;;;;;;490676;242;28090;-74
2022/03/14 07:30:41;;;;;;;5.77;3.43;;;7.00;99.90;;;;;;490620;242;27928;-72
2022/03/14 07:32:39;;;;;;;7.77;3.70;;;7.00;99.90;;;;;;490460;242;28343;-73
2022/03/14 07:34:40;;;;;;;3.80;3.30;;;6.90;99.90;;;;;;490661;242;28188;-74
2022/03/14 07:36:42;;;;;;;4.33;3.57;;;7.00;99.90;;;;;;490634;242;28445;-73
2022/03/14 07:38:42;;;;;;;5.80;3.63;;;7.10;99.90;;;;;;490558;242;28354;-73
2022/03/14 07:40:44;;;;;;;4.63;3.50;;;7.10;99.90;;;;;;490645;242;28286;-73
2022/03/14 07:42:45;;;;;;;4.80;3.33;;;7.10;99.90;;;;;;490653;242;28369;-74
2022/03/14 07:44:46;;;;;;;3.37;2.83;;;7.20;99.90;;;;;;490669;242;27904;-72
2022/03/14 07:46:48;;;;;;;3.70;3.10;;;;;;;;;;490686;242;27769;-73
2022/03/14 07:48:50;;;;;;;6.63;3.17;;;7.30;99.90;;;;;;490554;241;26687;-70
2022/03/14 07:50:52;;;;;;;4.10;2.80;;;7.40;99.90;;;;;;490624;242;27784;-73
2022/03/14 07:52:53;;;;;;;5.37;3.40;;;7.50;99.90;;;;;;490580;242;27857;-72
2022/03/14 07:54:53;;;;;;;8.00;3.10;;;7.50;99.90;;;;;;490599;242;27987;-73
2022/03/14 07:56:55;;;;;;;3.70;2.47;;;7.60;99.90;;;;;;490683;242;27866;-75
2022/03/14 07:58:56;;;;;;;5.53;2.40;;;7.40;99.90;;;;;;490634;242;27938;-73
2022/03/14 08:00:57;;;;;;;2.90;2.70;;;7.40;99.90;;;;;;490656;242;28432;-74
2022/03/14 08:02:58;;;;;;;3.80;2.73;;;7.40;99.90;;;;;;490628;242;29335;-74
2022/03/14 08:05:00;;;;;;;3.60;2.50;;;7.40;99.90;;;;;;490710;242;27838;-73
2022/03/14 08:07:01;;;;;;;4.67;2.73;;;7.50;99.90;;;;;;490681;242;28486;-73
2022/03/14 08:09:02;;;;;;;4.10;2.40;;;7.60;99.90;;;;;;490690;242;28300;-73
2022/03/14 08:11:04;;;;;;;3.23;2.30;;;7.50;99.90;;;;;;490677;242;28410;-73
2022/03/14 08:13:05;;;;;;;4.27;2.43;;;7.50;99.90;;;;;;490573;242;28101;-73
2022/03/14 08:15:06;;;;;;;4.30;2.70;;;7.50;99.90;;;;;;490612;242;27924;-73
2022/03/14 08:17:07;;;;;;;3.53;1.80;;;7.70;99.90;;;;;;490675;242;27900;-74
2022/03/14 08:19:09;;;;;;;2.97;2.33;;;7.70;99.90;;;;;;490621;242;27926;-73
2022/03/14 08:21:10;;;;;;;3.87;2.60;;;7.80;99.90;;;;;;490602;242;27881;-71
2022/03/14 08:23:11;;;;;;;3.67;2.13;;;7.80;99.90;;;;;;490475;242;28221;-71
2022/03/14 08:25:12;;;;;;;5.07;2.47;;;7.80;99.90;;;;;;490663;242;27850;-74
2022/03/14 08:27:13;;;;;;;4.93;2.50;;;7.80;99.90;;;;;;490590;242;27635;-73
2022/03/14 08:29:15;;;;;;;2.30;2.00;;;7.80;99.90;;;;;;490636;242;28026;-73
2022/03/14 08:31:16;;;;;;;3.87;2.23;;;7.80;99.90;;;;;;490588;242;27975;-74
2022/03/14 08:33:17;;;;;;;4.10;2.20;;;7.80;99.90;;;;;;490618;242;28036;-73
2022/03/14 08:35:20;;;;;;;2.47;2.10;;;7.70;99.90;;;;;;490582;242;27800;-72
2022/03/14 08:37:20;;;;;;;3.90;2.37;;;7.80;99.90;;;;;;490593;242;27958;-73
2022/03/14 08:39:21;;;;;;;4.53;2.43;;;7.90;99.90;;;;;;490600;242;27988;-73
2022/03/14 08:41:22;;;;;;;3.37;2.13;;;8.00;99.90;;;;;;490632;241;28335;-73
2022/03/14 08:43:23;;;;;;;3.60;2.40;;;8.00;99.90;;;;;;490663;241;28331;-75
2022/03/14 08:45:25;;;;;;;4.70;2.27;;;8.10;99.90;;;;;;490633;242;28499;-73
2022/03/14 08:47:26;;;;;;;2.83;1.80;;;8.10;99.90;;;;;;490613;242;27991;-74
2022/03/14 08:49:27;;;;;;;3.97;2.30;;;8.10;99.90;;;;;;490686;242;28060;-72
2022/03/14 08:51:28;;;;;;;4.43;1.83;;;8.00;99.90;;;;;;490588;242;27537;-72
2022/03/14 08:53:30;;;;;;;3.10;1.90;;;8.10;99.90;;;;;;489984;242;27709;-74
2022/03/14 08:55:31;;;;;;;2.10;1.80;;;8.20;99.90;;;;;;489283;242;27902;-73
2022/03/14 08:57:32;;;;;;;3.80;1.90;;;8.30;99.90;;;;;;490619;242;27856;-73
2022/03/14 08:59:33;;;;;;;4.30;2.47;;;8.30;99.90;;;;;;490618;242;27954;-73
2022/03/14 09:01:35;;;;;;;2.03;1.90;;;8.30;99.90;;;;;;490645;242;28091;-73
2022/03/14 09:03:36;;;;;;;2.50;1.90;;;8.10;99.90;;;;;;490573;242;27811;-75
2022/03/14 09:05:37;;;;;;;5.33;2.23;;;8.20;99.90;;;;;;490665;242;27819;-73
2022/03/14 09:07:38;;;;;;;2.77;2.00;;;8.40;99.90;;;;;;490633;242;28099;-73
2022/03/14 09:09:40;;;;;;;3.37;2.03;;;8.60;99.90;;;;;;490585;242;27863;-73
2022/03/14 09:11:41;;;;;;;2.07;1.70;;;8.60;99.90;;;;;;490655;242;28442;-73
2022/03/14 09:13:42;;;;;;;3.10;1.83;;;8.70;99.90;;;;;;490588;242;28370;-76
2022/03/14 09:15:43;;;;;;;4.33;2.03;;;8.80;99.90;;;;;;490633;242;27725;-73
2022/03/14 09:17:45;;;;;;;2.70;2.20;;;8.90;99.90;;;;;;490665;242;27888;-73
2022/03/14 09:19:46;;;;;;;2.60;1.97;;;8.90;99.90;;;;;;488394;242;28361;-73
2022/03/14 09:21:47;;;;;;;3.20;1.80;;;8.90;99.90;;;;;;487618;242;28522;-73
2022/03/14 09:23:50;;;;;;;3.60;1.70;;;9.00;99.90;;;;;;487610;242;28656;-75
2022/03/14 09:25:51;;;;;;;2.83;1.80;;;;;;;;;;487507;244;28414;-73
2022/03/14 09:27:53;;;;;;;6.90;2.00;;;;;;;;;;487583;242;27798;-73
2022/03/14 09:29:55;;;;;;;1.60;1.50;;;;;;;;;;487598;241;27796;-74
2022/03/14 09:31:57;;;;;;;4.87;1.80;;;;;;;;;;487614;242;27737;-73
2022/03/14 09:34:00;;;;;;;3.33;2.20;;;;;;;;;;487642;242;27677;-73
2022/03/14 09:36:02;;;;;;;2.73;2.00;;;;;;;;;;487574;242;27864;-72
2022/03/14 09:38:03;;;;;;;4.80;2.60;;;;;;;;;;487586;244;27723;-72
2022/03/14 09:40:06;;;;;;;4.70;2.00;;;;;;;;;;487631;242;27837;-76
2022/03/14 09:42:08;;;;;;;5.37;2.50;;;;;;;;;;487560;242;27637;-72
2022/03/14 09:44:10;;;;;;;3.43;1.87;;;;;;;;;;487613;242;27666;-74
2022/03/14 09:46:12;;;;;;;3.70;2.03;;;;;;;;;;487611;242;27787;-74
2022/03/14 09:48:14;;;;;;;2.73;1.87;;;9.40;99.90;;;;;;487675;242;28056;-74
2022/03/14 09:50:14;;;;;;;4.17;2.30;;;9.30;99.90;;;;;;487642;242;28318;-73
2022/03/14 09:52:15;;;;;;;3.13;2.13;;;9.30;99.90;;;;;;487533;242;29309;-73
2022/03/14 09:54:17;;;;;;;3.63;2.20;;;9.30;99.90;;;;;;487636;242;29111;-73
2022/03/14 09:56:18;;;;;;;2.87;2.10;;;9.40;99.90;;;;;;487565;242;28679;-73
2022/03/14 09:58:19;;;;;;;4.27;2.23;;;9.30;99.90;;;;;;487633;242;28544;-74
2022/03/14 10:00:20;;;;;;;2.00;1.80;;;9.50;99.90;;;;;;487580;244;28061;-73
2022/03/14 10:02:22;;;;;;;3.17;2.13;;;9.60;99.90;;;;;;487644;242;28194;-73
2022/03/14 10:04:23;;;;;;;3.53;2.20;;;9.70;99.90;;;;;;487644;242;28201;-73
2022/03/14 10:06:24;;;;;;;2.00;1.80;;;9.80;99.90;;;;;;487615;242;28052;-73
2022/03/14 10:08:25;;;;;;;2.60;2.00;;;9.80;99.90;;;;;;487628;242;28152;-73
2022/03/14 10:10:27;;;;;;;2.07;1.90;;;10.00;99.90;;;;;;487571;242;27850;-72
2022/03/14 10:12:28;;;;;;;2.53;1.93;;;10.00;99.90;;;;;;487622;242;28270;-74
2022/03/14 10:14:29;;;;;;;7.70;2.53;;;9.90;99.90;;;;;;487619;242;28204;-72
2022/03/14 10:16:30;;;;;;;1.97;1.77;;;10.00;99.90;;;;;;487614;242;28160;-72
2022/03/14 10:18:32;;;;;;;3.57;2.00;;;9.90;99.90;;;;;;487580;242;28918;-74
2022/03/14 10:20:33;;;;;;;1.57;1.47;;;10.00;99.90;;;;;;487579;242;28224;-73
2022/03/14 10:22:35;;;;;;;1.57;1.47;;;9.80;99.90;;;;;;487602;242;28329;-73
2022/03/14 10:24:35;;;;;;;3.60;2.47;;;9.70;99.90;;;;;;487517;242;28815;-73
2022/03/14 10:26:37;;;;;;;2.23;2.03;;;9.60;99.90;;;;;;487665;242;28534;-73
2022/03/14 10:28:38;;;;;;;4.80;2.50;;;9.60;99.90;;;;;;487570;242;28590;-73
2022/03/14 10:30:40;;;;;;;5.87;3.30;;;9.60;99.90;;;;;;487630;242;28639;-73
2022/03/14 10:32:41;;;;;;;6.40;2.50;;;9.30;99.90;;;;;;487616;242;28583;-72
2022/03/14 10:34:42;;;;;;;4.50;2.10;;;9.30;99.90;;;;;;487635;242;28539;-76
2022/03/14 10:36:45;;;;;;;3.10;2.00;;;9.30;99.90;;;;;;487604;242;27999;-74
2022/03/14 10:38:44;;;;;;;1.83;1.63;;;9.30;99.90;;;;;;487452;244;27971;-74
2022/03/14 10:40:45;;;;;;;2.80;2.20;;;9.20;99.90;;;;;;487674;242;27939;-73
2022/03/14 10:42:47;;;;;;;3.50;2.10;;;9.30;99.90;;;;;;487870;242;28074;-75
2022/03/14 10:44:50;;;;;;;2.93;2.10;;;;;;;;;;487743;243;28088;-74
2022/03/14 10:46:51;;;;;;;2.10;1.90;;;9.50;99.90;;;;;;487704;241;26828;-73
2022/03/14 10:48:52;;;;;;;2.07;1.97;;;9.50;99.90;;;;;;487708;242;27998;-75
2022/03/14 10:50:53;;;;;;;3.20;2.00;;;9.70;99.90;;;;;;487669;242;28175;-73
2022/03/14 10:52:55;;;;;;;5.13;1.87;;;9.70;99.90;;;;;;487630;242;28099;-73
2022/03/14 10:54:56;;;;;;;3.17;2.03;;;9.80;99.90;;;;;;487682;242;27956;-73